Airfield :







YOU CAN JOIN US ON...

 
LOGIN :

Register | Disclaimer

   EN    FR    IT 

 









Legend :    VFR   Marginal VFR   IFR   Intensive IFR   Very Intensive IFR
Visi :
Ceiling :
>= 8 km
>= 3000ft
5 to 8 km
1000 to 3000 ft
1500m to 5 km
500 to 1000 ft
800 to 1500m
200 to 500 ft
< 800m
< 200 ft
Symbols :   Thunderstorms  Fog  Heavy snow  Heavy precipitations  Wind > 20 kt






- Airport Elevation : 352 ft


KAUG - Augusta State

CURRENT METAR :
  • 261124Z AUTO 27005KT 2 1/2SM RA BR BKN004 BKN008 OVC090 18/17 A2977 RMK AO2 P0006 T01780172

EXPIRED METARs :
  • 261112Z AUTO 29003KT 3SM -RA BR BKN006 OVC090 18/17 A2977 RMK AO2 P0004 T01780172
  • 261059Z AUTO 28004KT 1 3/4SM RA BR OVC004 18/17 A2978 RMK AO2 P0001 T01780172
  • 261053Z AUTO 28003KT 2 1/2SM RA BR SCT004 OVC007 18/17 A2977 RMK AO2 SLP081 P0014 T01780172
  • 261040Z AUTO 32003KT 2 1/2SM RA BR BKN004 OVC016 18/17 A2977 RMK AO2 VIS 2V4 P0009 T01780172
  • 261014Z AUTO 00000KT 5SM -RA BR BKN004 OVC011 18/18 A2978 RMK AO2 P0003 T01830178
  • 261005Z AUTO 00000KT 3SM -RA BR SCT003 BKN006 OVC019 18/18 A2978 RMK AO2 P0002 T01780178
  • 260956Z AUTO 04005KT 2SM RA BR SCT005 BKN012 OVC070 18/17 A2976 RMK AO2 P0000 T01830172
  • 260945Z AUTO 08003KT 4SM RA BR SCT005 BKN075 OVC090 18/17 A2978 RMK AO2 P0013 T01780172
  • 260853Z AUTO 01003KT 5SM RA BR FEW048 SCT080 OVC095 18/17 A2979 RMK AO2 SLP086 P0017 60094 T01780172 56012
  • 260845Z AUTO 01003KT 4SM RA BR FEW006 BKN080 OVC095 18/18 A2979 RMK AO2 P0015 T01830178
  • 260835Z AUTO 32003KT 2 1/2SM RA BR SCT004 BKN046 OVC080 18/18 A2980 RMK AO2 P0013 T01830178

TAF KAUG
Valid from the 26 at 12:00 until the 27 at 12:00 UTC


261120Z 2612/2712 VRB03KT 3SM RA BR SCT004 OVC007
FM261300 35005KT 4SM -RA BR OVC020
FM261500 33008KT P6SM OVC050
KZBW FIR / North America



MET'MAP, your aeronautical weather chart ! - Copyright ORBIFLY December 2007 - Disclaimer

ORBIFLY MET'MAP TEAM :

Programming & Development : Alexandra Zaïnal
Concept & original design : Baudouin d'Aumeries
Assistance for programming : Marc-Olivier Méhu
Technical & hardware support : Manuel Goepfert

Contact : metmap@orbifly.com




SOURCES & CREDITS :

   NOAA